»·PEaware :: N112PC U96-U42

N112PC :: U96-U42

FLIGHT INFORMATION

Flight Status: Arrived
Operator: Privately registered:
United States
More flights under this callsign
Pilot: Gabor H. (24209)
Aircraft: PILATUS PC-12 EAGLE
(PC12)
More flights by this aircraft type
Origin: U96 Black Meml
United States
Destination: U42 Salt Lake City Mun No 2
United States
More flights between these airports :: More routes between these airports
Route: HVE V208 PUC V134 FFU
File this flight plan on PilotEdge
Remarks:
Altitude:
(Current/Filed)
20,000ft
Speed:
(Current/Filed)
260kts
Departed: 21-Jul-19 11:41 AM
Arrived: 21-Jul-19 12:34 PM
Distance/Time
Traveled:
202nm/0:53
Distance/Time
To Go:
Arrived

Flight Plot

Page will automatically refresh every two minutes.

Flight plan parsing failed; only flown route is shown


Map Options




Map Legend


Flown Route
Filed Route
Departure Airport
Arrival Airport
Navaid (VOR, NDB)
Fix

Horizontal Profiles

Position Reports

Time Latitude Longitude Heading Altitude Ground
Speed
21-Jul-19 11:34 37.442040 -110.561427 28 4391ft 0kts
21-Jul-19 11:35 37.442040 -110.561427 28 4391ft 0kts
21-Jul-19 11:36 37.442040 -110.561427 28 4391ft 0kts
21-Jul-19 11:37 37.442041 -110.561426 28 4391ft 0kts
21-Jul-19 11:38 37.442123 -110.561292 83 4391ft 3kts
21-Jul-19 11:39 37.442357 -110.560173 115 4391ft 10kts
21-Jul-19 11:40 37.430788 -110.567505 212 4763ft 121kts
21-Jul-19 11:41 37.449161 -110.594041 9 6481ft 167kts
21-Jul-19 11:42 37.496331 -110.580344 5 8204ft 178kts
21-Jul-19 11:43 37.546414 -110.580560 353 9929ft 192kts
21-Jul-19 11:44 37.602959 -110.587341 352 11646ft 206kts
21-Jul-19 11:45 37.660793 -110.595100 352 13351ft 213kts
21-Jul-19 11:46 37.722284 -110.603534 352 14465ft 225kts
21-Jul-19 11:47 37.784140 -110.612094 352 14571ft 220kts
21-Jul-19 11:48 37.845242 -110.620487 352 14591ft 220kts
21-Jul-19 11:49 37.907022 -110.629026 352 15378ft 231kts
21-Jul-19 11:50 37.973249 -110.638198 352 16892ft 241kts
21-Jul-19 11:51 38.041551 -110.647651 352 18396ft 246kts
21-Jul-19 11:52 38.108349 -110.656928 352 19885ft 238kts
21-Jul-19 11:53 38.179613 -110.666873 353 20219ft 270kts
21-Jul-19 11:54 38.255032 -110.677378 353 20223ft 273kts
21-Jul-19 11:55 38.331608 -110.688048 353 20230ft 275kts
21-Jul-19 11:56 38.407485 -110.697802 355 20259ft 274kts
21-Jul-19 11:57 38.484260 -110.702789 356 20250ft 276kts
21-Jul-19 11:58 38.560840 -110.706490 357 20248ft 275kts
21-Jul-19 11:59 38.637587 -110.709985 357 20244ft 275kts
21-Jul-19 12:00 38.714140 -110.713443 357 20241ft 275kts
21-Jul-19 12:01 38.791559 -110.716935 356 20223ft 277kts
21-Jul-19 12:02 38.869130 -110.720427 356 20211ft 277kts
21-Jul-19 12:03 38.941468 -110.747286 325 20220ft 273kts
21-Jul-19 12:04 39.004085 -110.802915 323 20220ft 272kts
21-Jul-19 12:05 39.066684 -110.859334 323 20220ft 274kts
21-Jul-19 12:06 39.129473 -110.915998 323 20221ft 274kts
21-Jul-19 12:07 39.191784 -110.971928 323 20232ft 273kts
21-Jul-19 12:08 39.254944 -111.028610 323 20227ft 274kts
21-Jul-19 12:09 39.317421 -111.084701 323 20236ft 273kts
21-Jul-19 12:10 39.379965 -111.140786 323 20232ft 274kts
21-Jul-19 12:11 39.443015 -111.197385 323 20220ft 275kts
21-Jul-19 12:12 39.505892 -111.254358 322 20215ft 275kts
21-Jul-19 12:13 39.564211 -111.307311 323 20216ft 275kts
21-Jul-19 12:14 39.627053 -111.364176 322 20211ft 275kts
21-Jul-19 12:15 39.690603 -111.422588 322 19197ft 283kts
21-Jul-19 12:16 39.755020 -111.481487 322 17699ft 283kts
21-Jul-19 12:17 39.820446 -111.540602 323 16195ft 286kts
21-Jul-19 12:18 39.885760 -111.599614 324 14695ft 286kts
21-Jul-19 12:19 39.950814 -111.657765 325 14060ft 278kts
21-Jul-19 12:20 40.013938 -111.713674 324 14053ft 273kts
21-Jul-19 12:21 40.076125 -111.768839 324 14043ft 265kts
21-Jul-19 12:22 40.137151 -111.822815 324 13502ft 265kts
21-Jul-19 12:23 40.193006 -111.871794 325 11999ft 223kts
21-Jul-19 12:24 40.244952 -111.916425 326 10500ft 225kts
21-Jul-19 12:25 40.303392 -111.945628 350 9113ft 223kts
21-Jul-19 12:26 40.366551 -111.955394 353 7158ft 224kts
21-Jul-19 12:27 40.423118 -111.963949 353 6931ft 186kts
21-Jul-19 12:28 40.471206 -111.971367 352 6016ft 145kts
21-Jul-19 12:29 40.509841 -111.977307 353 5813ft 141kts
21-Jul-19 12:30 40.549985 -111.981135 357 5804ft 147kts
21-Jul-19 12:31 40.586098 -111.986792 351 5339ft 107kts
21-Jul-19 12:32 40.611507 -111.991479 352 4641ft 80kts
21-Jul-19 12:33 40.616919 -111.994542 263 4606ft 12kts
21-Jul-19 12:34 40.617366 -111.996085 353 4606ft 0kts
21-Jul-19 12:35 40.617366 -111.996085 353 4606ft 0kts
21-Jul-19 12:36 40.617366 -111.996085 353 4606ft 0kts

Navigation Log

Ident Type
Flight plan parsing failed, navigation log unavailable